Time;durP1;ratioP1;P1;durP2;ratioP2;P2;SDS_P1;SDS_P2;PMS_P1;PMS_P2;Temp;Humidity;BMP_temperature;BMP_pressure;BME280_temperature;BME280_humidity;BME280_pressure;Samples;Min_cycle;Max_cycle;Signal;HPM_P1;HPM_P2
2022/02/05 00:02:11;;;;;;;20.95;11.35;;;5.40;95.40;;;;;;5020166;28;20464;-68
2022/02/05 00:04:37;;;;;;;18.40;10.73;;;5.40;95.40;;;;;;5019531;28;20029;-68
2022/02/05 00:07:06;;;;;;;22.67;10.95;;;5.40;95.30;;;;;;5019800;28;20013;-68
2022/02/05 00:12:24;;;;;;;21.88;11.10;;;5.40;95.50;;;;;;5031471;28;20026;-68
2022/02/05 00:15:24;;;;;;;20.42;10.77;;;5.30;95.80;;;;;;5031285;28;20043;-69
2022/02/05 00:40:31;;;;;;;16.40;9.02;;;5.10;95.30;;;;;;4937680;29;20058;-69
2022/02/05 00:42:57;;;;;;;15.65;8.40;;;5.10;95.20;;;;;;4947067;29;20098;-68
2022/02/05 00:45:23;;;;;;;18.70;9.35;;;5.00;95.20;;;;;;4945683;29;20052;-69
2022/02/05 00:47:49;;;;;;;17.80;8.57;;;5.10;95.30;;;;;;4950026;29;20138;-68
2022/02/05 00:50:20;;;;;;;17.10;8.80;;;5.10;95.30;;;;;;4946524;29;20039;-68
2022/02/05 00:52:58;;;;;;;19.90;9.93;;;5.00;95.30;;;;;;4946797;28;20227;-68
2022/02/05 00:55:27;;;;;;;18.55;9.13;;;5.00;95.40;;;;;;4947206;28;20039;-68
2022/02/05 00:57:52;;;;;;;16.23;8.63;;;5.00;95.50;;;;;;4946824;28;20030;-68
2022/02/05 01:00:19;;;;;;;19.70;9.25;;;5.00;95.50;;;;;;4948223;28;20043;-69
2022/02/05 01:02:45;;;;;;;18.27;9.13;;;5.00;95.40;;;;;;4932967;29;20031;-67
2022/02/05 01:05:11;;;;;;;15.27;8.40;;;5.00;95.40;;;;;;4968721;28;20046;-69
2022/02/05 01:07:38;;;;;;;15.60;9.18;;;5.00;95.40;;;;;;5025072;28;20030;-69
2022/02/05 01:10:04;;;;;;;16.67;8.82;;;4.90;95.40;;;;;;5018597;28;20041;-69
2022/02/05 01:12:32;;;;;;;18.38;9.02;;;4.90;95.50;;;;;;5014319;28;20021;-69
2022/02/05 01:15:01;;;;;;;18.95;9.52;;;4.80;95.70;;;;;;5030764;28;20480;-68
2022/02/05 01:17:34;;;;;;;16.05;8.90;;;4.80;95.70;;;;;;5030053;28;20136;-68
2022/02/05 01:22:30;;;;;;;18.85;8.43;;;4.80;96.10;;;;;;5026020;28;20036;-69
2022/02/05 01:24:56;;;;;;;14.45;8.30;;;4.70;96.10;;;;;;5017455;28;20041;-68
2022/02/05 01:32:37;;;;;;;17.27;8.73;;;4.70;96.30;;;;;;5028699;28;20029;-68
2022/02/05 01:35:20;;;;;;;18.25;8.75;;;4.70;96.40;;;;;;5025901;28;20033;-69
2022/02/05 01:49:12;;;;;;;16.42;8.40;;;4.70;96.90;;;;;;5014401;28;20434;-69
2022/02/05 01:56:50;;;;;;;18.10;8.57;;;4.80;96.90;;;;;;5015346;28;20409;-68
2022/02/05 01:59:50;;;;;;;15.85;7.70;;;4.80;97.00;;;;;;5017849;28;20037;-68
2022/02/05 02:05:05;;;;;;;16.95;8.07;;;4.80;96.90;;;;;;5017587;28;20029;-68
2022/02/05 02:13:06;;;;;;;14.07;6.65;;;4.90;96.80;;;;;;5015318;28;20056;-69
2022/02/05 02:15:43;;;;;;;15.68;7.60;;;4.90;96.70;;;;;;5012913;28;20257;-68
2022/02/05 02:18:25;;;;;;;15.43;6.85;;;4.90;96.60;;;;;;5013139;28;20049;-69
2022/02/05 02:26:14;;;;;;;17.25;7.95;;;4.80;96.10;;;;;;5020476;28;20030;-68
2022/02/05 02:31:14;;;;;;;12.35;6.90;;;4.70;96.10;;;;;;5017357;28;20859;-68
2022/02/05 02:33:45;;;;;;;16.90;6.95;;;4.70;96.30;;;;;;5014102;28;20412;-68
2022/02/05 02:36:20;;;;;;;13.02;7.07;;;4.60;96.30;;;;;;5012543;28;20022;-68
2022/02/05 02:38:50;;;;;;;17.13;7.03;;;4.60;96.30;;;;;;5028522;28;20027;-67
2022/02/05 02:41:23;;;;;;;13.88;7.03;;;4.60;96.40;;;;;;5027280;28;20053;-68
2022/02/05 02:43:49;;;;;;;15.68;6.50;;;4.50;96.40;;;;;;5021584;28;20065;-68
2022/02/05 02:46:15;;;;;;;11.50;5.88;;;4.50;96.50;;;;;;5017095;28;20029;-68
2022/02/05 02:48:46;;;;;;;16.58;7.00;;;4.50;96.60;;;;;;5017638;28;20036;-68
2022/02/05 02:58:50;;;;;;;11.60;6.20;;;4.30;96.70;;;;;;5023162;28;20492;-68
2022/02/05 03:01:19;;;;;;;12.32;6.13;;;4.30;96.70;;;;;;5030568;28;20053;-69
2022/02/05 03:03:45;;;;;;;10.68;6.20;;;4.30;96.70;;;;;;5032090;28;20072;-68
2022/02/05 03:06:11;;;;;;;15.05;7.55;;;4.20;96.80;;;;;;5016626;28;20037;-68
2022/02/05 03:08:37;;;;;;;16.70;7.32;;;4.20;97.00;;;;;;5020118;28;20481;-68
2022/02/05 03:11:03;;;;;;;14.63;7.25;;;4.20;97.20;;;;;;5029104;28;20024;-68
2022/02/05 03:13:29;;;;;;;15.63;7.78;;;4.20;97.50;;;;;;5027202;28;20029;-68
2022/02/05 03:15:55;;;;;;;16.15;7.40;;;4.20;97.60;;;;;;5019745;28;20072;-68
2022/02/05 03:21:05;;;;;;;15.15;6.50;;;4.10;97.70;;;;;;5028999;28;20087;-68
2022/02/05 03:23:31;;;;;;;10.15;6.07;;;4.10;97.60;;;;;;5032703;28;20021;-68
2022/02/05 03:25:57;;;;;;;17.88;6.80;;;4.10;97.60;;;;;;5024304;28;20477;-68
2022/02/05 03:28:23;;;;;;;12.10;6.80;;;4.00;97.60;;;;;;5022753;28;20033;-68
2022/02/05 03:30:48;;;;;;;11.95;6.28;;;4.00;97.70;;;;;;5031996;28;20029;-68
2022/02/05 03:33:14;;;;;;;11.32;6.18;;;4.00;97.70;;;;;;5015865;28;20033;-68
2022/02/05 03:35:40;;;;;;;13.05;7.03;;;4.00;97.80;;;;;;5030342;28;20492;-68
2022/02/05 03:38:05;;;;;;;17.63;7.40;;;4.00;97.80;;;;;;5031071;28;20386;-68
2022/02/05 03:40:31;;;;;;;16.33;7.22;;;4.00;97.90;;;;;;5030964;28;20029;-68
2022/02/05 03:42:57;;;;;;;14.05;7.05;;;3.90;97.90;;;;;;5030165;28;20021;-68
2022/02/05 03:45:22;;;;;;;15.77;6.70;;;3.90;97.80;;;;;;5015757;28;20045;-68
2022/02/05 03:47:51;;;;;;;13.23;6.45;;;3.90;97.90;;;;;;5018225;28;20485;-68
2022/02/05 03:50:16;;;;;;;13.05;6.65;;;3.90;97.90;;;;;;5030102;28;20049;-68
2022/02/05 03:52:43;;;;;;;14.43;6.43;;;3.90;98.00;;;;;;5025860;28;20029;-68
2022/02/05 03:55:10;;;;;;;11.95;5.90;;;3.90;98.00;;;;;;5020071;28;20052;-68
2022/02/05 03:57:36;;;;;;;10.80;5.82;;;3.80;97.90;;;;;;5016155;28;20029;-68
2022/02/05 04:00:09;;;;;;;13.57;5.88;;;3.80;97.90;;;;;;5015979;28;20533;-68
2022/02/05 04:02:36;;;;;;;11.45;6.22;;;3.80;97.90;;;;;;5031407;28;20045;-68
2022/02/05 04:05:03;;;;;;;10.88;6.03;;;3.80;97.90;;;;;;5022766;28;20038;-68
2022/02/05 04:07:31;;;;;;;15.45;6.35;;;3.80;97.90;;;;;;5020051;28;20108;-68
2022/02/05 04:10:01;;;;;;;16.35;7.10;;;3.80;98.10;;;;;;5018897;28;20099;-68
2022/02/05 04:17:55;;;;;;;12.02;5.60;;;3.70;98.10;;;;;;5032606;28;20507;-68
2022/02/05 04:20:21;;;;;;;12.60;5.95;;;3.70;98.10;;;;;;5019523;28;20034;-68
2022/02/05 04:22:47;;;;;;;13.50;5.97;;;3.70;98.00;;;;;;5025572;28;20025;-68
2022/02/05 04:25:13;;;;;;;11.95;5.80;;;3.70;98.00;;;;;;5029363;28;20108;-69
2022/02/05 04:27:39;;;;;;;11.68;5.82;;;3.80;97.90;;;;;;5016243;28;20044;-69
2022/02/05 04:30:06;;;;;;;12.57;5.85;;;3.80;97.90;;;;;;5015177;28;20381;-68
2022/02/05 04:32:32;;;;;;;11.30;6.20;;;3.80;97.60;;;;;;5030776;28;20025;-68
2022/02/05 04:34:58;;;;;;;13.63;6.53;;;3.70;97.50;;;;;;5022778;28;20038;-68
2022/02/05 04:37:26;;;;;;;11.95;6.70;;;3.60;98.00;;;;;;5019359;28;20030;-68
2022/02/05 04:40:06;;;;;;;17.58;6.43;;;3.60;98.60;;;;;;5017240;28;20550;-68
2022/02/05 04:42:55;;;;;;;12.70;5.93;;;3.50;99.00;;;;;;5021095;28;20064;-68
2022/02/05 05:01:24;;;;;;;14.68;6.22;;;3.50;98.90;;;;;;4988398;28;20060;-68
2022/02/05 05:04:02;;;;;;;15.98;6.93;;;3.40;99.00;;;;;;4976418;28;20030;-68
2022/02/05 05:11:50;;;;;;;11.63;5.72;;;3.30;99.30;;;;;;4990412;28;20501;-68
2022/02/05 05:21:55;;;;;;;11.95;5.45;;;3.30;99.10;;;;;;4976889;28;20149;-68
2022/02/05 05:24:21;;;;;;;10.10;5.70;;;3.30;99.00;;;;;;4972151;28;20074;-68
2022/02/05 05:26:47;;;;;;;11.27;5.95;;;3.30;98.90;;;;;;4975186;28;20194;-68
2022/02/05 05:29:13;;;;;;;15.80;5.55;;;3.30;98.90;;;;;;4977983;28;20093;-68
2022/02/05 05:31:39;;;;;;;13.52;5.63;;;3.30;99.00;;;;;;4993842;28;20042;-68
2022/02/05 05:34:04;;;;;;;10.10;4.88;;;3.30;99.10;;;;;;5017710;28;20072;-68
2022/02/05 05:36:30;;;;;;;12.20;5.22;;;3.30;99.10;;;;;;5029312;28;20112;-68
2022/02/05 05:39:02;;;;;;;9.23;5.10;;;3.30;98.80;;;;;;5014903;28;20113;-68
2022/02/05 05:41:29;;;;;;;14.13;5.38;;;3.20;98.50;;;;;;5029038;28;20037;-67
2022/02/05 05:49:11;;;;;;;10.00;5.28;;;3.20;98.50;;;;;;5028487;28;20029;-68
2022/02/05 05:51:37;;;;;;;12.68;5.32;;;3.20;98.60;;;;;;5014290;28;20041;-68
2022/02/05 05:54:03;;;;;;;14.65;5.53;;;3.20;98.60;;;;;;5029263;28;20155;-68
2022/02/05 05:56:29;;;;;;;11.60;5.10;;;3.10;98.50;;;;;;5017888;28;20034;-68
2022/02/05 05:58:55;;;;;;;13.05;4.97;;;3.10;98.40;;;;;;5017791;28;20461;-68
2022/02/05 06:01:21;;;;;;;10.23;5.07;;;3.10;98.50;;;;;;5020268;28;20036;-68
2022/02/05 06:03:47;;;;;;;14.52;5.20;;;3.10;98.60;;;;;;5028908;28;20033;-68
2022/02/05 06:06:12;;;;;;;11.07;5.20;;;3.10;98.70;;;;;;5028961;28;20053;-68
2022/02/05 06:08:38;;;;;;;10.45;4.72;;;3.10;98.80;;;;;;5029475;28;20500;-68
2022/02/05 06:11:04;;;;;;;12.05;5.10;;;3.10;98.80;;;;;;5028953;28;20037;-68
2022/02/05 06:13:30;;;;;;;9.60;5.13;;;3.10;98.70;;;;;;5028373;28;20021;-68
2022/02/05 06:15:57;;;;;;;12.38;5.28;;;3.00;98.80;;;;;;5028971;28;20088;-68
2022/02/05 06:18:24;;;;;;;12.40;5.28;;;3.00;98.80;;;;;;5012295;28;25784;-68
2022/02/05 06:20:50;;;;;;;13.18;4.75;;;3.00;99.00;;;;;;5015372;28;20056;-68
2022/02/05 06:23:16;;;;;;;12.23;4.78;;;3.00;99.00;;;;;;5017261;28;20033;-68
2022/02/05 06:25:42;;;;;;;11.63;4.85;;;3.00;99.00;;;;;;5017587;28;20030;-68
2022/02/05 06:28:14;;;;;;;11.05;4.32;;;3.00;98.90;;;;;;5017091;28;20029;-68
2022/02/05 06:30:41;;;;;;;10.48;4.35;;;3.00;98.70;;;;;;5014317;28;20538;-68
2022/02/05 06:33:06;;;;;;;11.77;4.63;;;3.00;98.60;;;;;;5028902;28;20044;-68
2022/02/05 06:35:32;;;;;;;9.20;4.80;;;2.90;98.60;;;;;;5016067;28;20042;-68
2022/02/05 06:37:58;;;;;;;11.75;4.22;;;3.00;98.60;;;;;;5017453;28;20474;-68
2022/02/05 06:40:24;;;;;;;12.25;5.22;;;2.90;98.70;;;;;;5017167;28;20049;-68
2022/02/05 06:42:50;;;;;;;10.65;4.63;;;2.90;98.70;;;;;;5014768;28;20389;-65
2022/02/05 06:45:16;;;;;;;9.48;4.50;;;2.90;98.70;;;;;;5028606;28;20045;-68
2022/02/05 06:47:44;;;;;;;8.43;5.07;;;2.90;98.80;;;;;;5015569;28;20041;-68
2022/02/05 06:50:10;;;;;;;11.00;5.35;;;2.80;98.70;;;;;;5019795;28;20524;-68
2022/02/05 06:52:36;;;;;;;16.17;5.93;;;2.90;98.60;;;;;;5021358;28;20033;-68
2022/02/05 06:55:03;;;;;;;10.25;4.70;;;2.80;98.60;;;;;;5016533;28;20037;-68
2022/02/05 06:57:30;;;;;;;10.80;4.53;;;2.80;98.70;;;;;;5012449;28;20026;-68
2022/02/05 06:59:55;;;;;;;9.82;4.18;;;2.80;98.60;;;;;;5029725;28;20021;-68
2022/02/05 07:02:21;;;;;;;12.27;4.75;;;2.80;98.50;;;;;;5017404;28;20050;-68
2022/02/05 07:04:47;;;;;;;8.57;4.25;;;2.80;98.70;;;;;;5022461;28;20112;-69
2022/02/05 07:07:13;;;;;;;11.10;4.75;;;2.80;98.80;;;;;;5026217;28;20049;-68
2022/02/05 07:09:39;;;;;;;9.52;5.03;;;2.80;98.80;;;;;;5013772;28;20143;-68
2022/02/05 07:12:06;;;;;;;12.38;5.05;;;2.70;98.90;;;;;;5028506;28;20160;-68
2022/02/05 07:14:38;;;;;;;11.15;5.10;;;2.70;99.00;;;;;;5028532;28;20052;-68
2022/02/05 07:17:15;;;;;;;11.73;5.22;;;2.70;98.90;;;;;;5019853;28;20029;-68
2022/02/05 07:22:19;;;;;;;13.65;5.38;;;2.70;99.10;;;;;;5025862;28;20079;-68
2022/02/05 07:29:13;;;;;;;11.23;4.80;;;2.70;99.30;;;;;;5014230;28;20021;-68
2022/02/05 07:30:26;;;;;;;14.45;5.78;;;2.70;99.30;;;;;;5011893;28;20090;-68
2022/02/05 07:32:52;;;;;;;13.88;6.28;;;2.70;99.30;;;;;;5028594;28;20116;-68
2022/02/05 07:35:18;;;;;;;12.73;5.18;;;2.80;99.40;;;;;;5017722;28;20061;-68
2022/02/05 07:37:43;;;;;;;12.27;4.75;;;2.80;99.30;;;;;;5016469;28;20480;-68
2022/02/05 07:40:10;;;;;;;12.55;4.88;;;2.80;99.00;;;;;;5017400;28;20137;-68
2022/02/05 07:42:36;;;;;;;9.63;4.78;;;2.90;98.80;;;;;;5013025;28;20033;-68
2022/02/05 07:45:02;;;;;;;13.32;4.82;;;3.00;98.40;;;;;;5012660;28;20064;-69
2022/02/05 07:47:33;;;;;;;15.70;5.43;;;3.20;97.70;;;;;;5029439;28;20059;-68
2022/02/05 07:49:58;;;;;;;;;;;3.50;97.00;;;;;;5023938;28;20048;-68
2022/02/05 07:52:25;;;;;;;10.40;4.90;;;3.90;96.00;;;;;;5020702;28;19921;-69
2022/02/05 07:54:51;;;;;;;22.48;9.50;;;4.40;94.50;;;;;;5030859;28;20038;-68
2022/02/05 07:57:16;;;;;;;69.05;28.77;;;4.90;92.70;;;;;;5014176;28;20033;-69
2022/02/05 07:59:42;;;;;;;15.23;6.90;;;5.40;91.20;;;;;;5032637;28;20412;-68
2022/02/05 08:02:09;;;;;;;14.80;5.85;;;5.90;89.10;;;;;;5030887;28;20593;-68
2022/02/05 08:04:35;;;;;;;10.93;4.90;;;6.50;85.70;;;;;;5030527;28;20021;-68
2022/02/05 08:07:02;;;;;;;14.75;6.10;;;7.10;82.30;;;;;;5030997;28;20711;-68
2022/02/05 08:09:42;;;;;;;13.40;7.10;;;7.70;78.60;;;;;;5014966;28;20029;-68
2022/02/05 08:12:11;;;;;;;18.52;7.75;;;8.40;75.00;;;;;;5028424;28;20022;-68
2022/02/05 08:14:42;;;;;;;20.00;7.05;;;9.10;71.30;;;;;;5030856;28;20045;-69
2022/02/05 08:17:17;;;;;;;13.18;6.32;;;9.80;66.30;;;;;;5021937;28;20042;-68
2022/02/05 08:19:44;;;;;;;14.32;6.63;;;10.40;63.10;;;;;;5024474;28;20400;-69
2022/02/05 08:22:10;;;;;;;11.73;6.55;;;11.00;60.20;;;;;;5030195;28;20121;-69
2022/02/05 08:24:36;;;;;;;13.48;6.97;;;11.60;58.00;;;;;;5015638;28;20120;-69
2022/02/05 08:27:01;;;;;;;15.18;7.90;;;12.20;56.80;;;;;;5031502;28;20029;-69
2022/02/05 08:29:29;;;;;;;13.35;7.10;;;12.80;55.30;;;;;;5030869;28;20037;-69
2022/02/05 08:31:55;;;;;;;12.25;7.82;;;13.50;53.80;;;;;;5023503;28;20026;-69
2022/02/05 08:34:21;;;;;;;13.23;7.72;;;14.10;51.80;;;;;;5019163;28;20037;-69
2022/02/05 08:36:47;;;;;;;15.60;8.13;;;14.80;49.40;;;;;;5016724;28;20565;-70
2022/02/05 08:39:14;;;;;;;13.10;6.70;;;15.40;47.70;;;;;;5014847;28;20052;-69
2022/02/05 08:41:40;;;;;;;14.85;7.18;;;15.90;46.60;;;;;;5018624;28;20034;-69
2022/02/05 08:44:07;;;;;;;18.50;6.50;;;16.60;45.80;;;;;;5020126;28;20056;-69
2022/02/05 08:46:33;;;;;;;13.43;6.97;;;17.10;44.90;;;;;;5023869;28;20072;-70
2022/02/05 08:48:59;;;;;;;17.50;7.57;;;17.80;43.60;;;;;;5018276;28;20014;-70
2022/02/05 08:51:25;;;;;;;16.88;9.02;;;18.30;42.20;;;;;;5030448;28;20389;-70
2022/02/05 08:53:51;;;;;;;17.02;8.68;;;18.80;40.60;;;;;;5016783;28;20018;-70
2022/02/05 08:56:17;;;;;;;16.02;8.55;;;19.30;39.10;;;;;;5018731;28;20495;-70
2022/02/05 08:58:43;;;;;;;16.67;8.27;;;19.80;38.40;;;;;;5025294;28;20021;-70
2022/02/05 09:01:16;;;;;;;12.95;7.85;;;20.30;37.50;;;;;;5029523;28;20488;-70
2022/02/05 09:04:30;;;;;;;19.08;7.53;;;20.80;36.80;;;;;;5030028;28;20026;-70
2022/02/05 09:06:37;;;;;;;16.27;7.40;;;21.40;36.10;;;;;;5013634;28;20520;-70
2022/02/05 09:09:16;;;;;;;16.83;8.40;;;22.00;34.80;;;;;;5026724;28;20025;-70
2022/02/05 09:11:47;;;;;;;18.02;7.90;;;22.50;34.00;;;;;;5028846;28;20037;-70
2022/02/05 09:16:39;;;;;;;13.85;8.10;;;23.40;32.20;;;;;;5021561;28;20112;-70
2022/02/05 09:19:06;;;;;;;16.10;8.13;;;23.90;31.70;;;;;;5018442;28;20024;-70
2022/02/05 09:21:32;;;;;;;14.10;7.50;;;24.20;30.10;;;;;;5014178;28;20033;-70
2022/02/05 09:24:01;;;;;;;18.58;7.60;;;24.50;29.70;;;;;;5026639;28;20078;-71
2022/02/05 09:26:30;;;;;;;17.40;8.52;;;24.70;29.20;;;;;;5018898;28;20228;-71
2022/02/05 09:29:03;;;;;;;19.33;8.93;;;24.90;29.00;;;;;;5027427;28;20057;-70
2022/02/05 09:31:35;;;;;;;16.50;8.80;;;25.20;28.70;;;;;;5025722;28;20049;-70
2022/02/05 09:34:01;;;;;;;20.95;8.43;;;25.50;28.70;;;;;;5017785;28;20022;-70
2022/02/05 09:36:27;;;;;;;15.10;8.00;;;26.00;28.40;;;;;;5029233;28;20072;-71
2022/02/05 09:38:55;;;;;;;12.45;6.75;;;26.30;27.80;;;;;;5016093;28;20091;-71
2022/02/05 09:41:21;;;;;;;12.77;6.13;;;26.60;27.50;;;;;;5027646;28;20104;-71
2022/02/05 09:43:48;;;;;;;18.95;9.20;;;27.00;27.10;;;;;;5023118;28;20050;-71
2022/02/05 09:46:15;;;;;;;16.00;7.65;;;27.30;26.90;;;;;;5017755;28;20040;-70
2022/02/05 09:48:44;;;;;;;19.75;11.07;;;27.80;26.80;;;;;;5015181;28;20099;-71
2022/02/05 09:51:18;;;;;;;15.32;6.78;;;28.30;26.60;;;;;;5014155;28;20038;-71
2022/02/05 09:53:55;;;;;;;16.48;5.28;;;28.70;26.30;;;;;;5015658;28;20451;-71
2022/02/05 09:56:23;;;;;;;13.80;4.28;;;29.30;25.80;;;;;;5017788;28;20049;-71
2022/02/05 09:58:49;;;;;;;22.35;11.73;;;29.60;25.00;;;;;;5017756;28;20098;-70
2022/02/05 10:01:22;;;;;;;13.05;4.38;;;30.00;24.60;;;;;;5018812;28;20091;-71
2022/02/05 10:03:50;;;;;;;18.02;10.93;;;30.30;24.40;;;;;;5028860;28;20036;-71
2022/02/05 10:06:23;;;;;;;12.32;4.65;;;30.50;24.10;;;;;;5012655;28;20037;-71
2022/02/05 10:09:10;;;;;;;11.85;5.00;;;30.80;24.00;;;;;;5014692;28;20033;-70
2022/02/05 10:11:59;;;;;;;12.93;6.35;;;30.90;23.90;;;;;;5028374;28;20029;-71
2022/02/05 10:14:34;;;;;;;11.77;3.90;;;31.30;23.70;;;;;;5017225;28;20104;-71
2022/02/05 10:17:02;;;;;;;11.43;4.35;;;31.70;23.50;;;;;;5017373;28;20548;-71
2022/02/05 10:19:47;;;;;;;12.65;4.60;;;32.00;23.00;;;;;;5017439;28;20397;-70
2022/02/05 10:22:13;;;;;;;13.68;4.50;;;32.20;22.80;;;;;;5017500;28;20135;-71
2022/02/05 10:24:55;;;;;;;10.32;3.90;;;32.50;22.60;;;;;;5013911;28;20128;-71
2022/02/05 10:27:32;;;;;;;12.55;4.32;;;32.70;22.30;;;;;;5012394;28;20032;-71
2022/02/05 10:30:31;;;;;;;10.60;4.63;;;32.80;22.10;;;;;;5025139;28;20496;-71
2022/02/05 10:33:10;;;;;;;10.40;4.03;;;33.10;21.70;;;;;;4987570;28;20046;-71
2022/02/05 10:35:45;;;;;;;13.25;4.30;;;33.30;21.80;;;;;;4989571;28;20422;-71
2022/02/05 10:43:08;;;;;;;;;;;33.90;21.50;;;;;;4987519;28;20065;-71
2022/02/05 10:45:44;;;;;;;10.32;3.83;;;34.00;21.20;;;;;;4987613;28;19921;-71
2022/02/05 10:48:12;;;;;;;10.25;3.90;;;34.10;21.10;;;;;;4987307;28;20042;-71
2022/02/05 10:50:38;;;;;;;10.10;4.43;;;34.30;20.80;;;;;;4987799;28;20030;-71
2022/02/05 10:53:19;;;;;;;10.25;3.22;;;34.50;20.70;;;;;;4987656;28;20030;-71
2022/02/05 10:56:25;;;;;;;;;;;34.50;20.70;;;;;;4988002;28;20058;-71
2022/02/05 11:07:08;;;;;;;12.48;3.47;;;35.20;20.50;;;;;;4987403;28;20512;-71
2022/02/05 11:09:34;;;;;;;14.23;6.25;;;35.50;19.80;;;;;;5009453;28;20037;-71
2022/02/05 11:20:16;;;;;;;11.05;3.20;;;35.80;19.70;;;;;;5016732;28;20845;-71
2022/02/05 11:22:49;;;;;;;14.20;3.28;;;35.90;19.70;;;;;;5029881;28;20025;-71
2022/02/05 11:25:17;;;;;;;10.25;2.78;;;36.00;19.70;;;;;;5031944;28;20040;-71
2022/02/05 11:27:52;;;;;;;8.93;3.05;;;36.10;19.30;;;;;;5031608;28;20026;-71
2022/02/05 11:30:35;;;;;;;14.30;3.60;;;36.00;19.50;;;;;;5015721;28;20121;-71
2022/02/05 11:33:18;;;;;;;10.65;2.97;;;36.20;19.20;;;;;;5029264;28;20029;-71
2022/02/05 11:38:33;;;;;;;11.32;3.05;;;36.30;19.40;;;;;;5021498;28;20034;-71
2022/02/05 11:41:02;;;;;;;10.55;2.97;;;36.30;19.20;;;;;;5024321;28;20029;-71
2022/02/05 11:43:29;;;;;;;10.20;2.92;;;36.50;19.10;;;;;;5028173;28;20038;-69
2022/02/05 11:46:09;;;;;;;12.18;3.00;;;36.50;19.10;;;;;;5019532;28;20408;-69
2022/02/05 11:48:38;;;;;;;10.15;2.80;;;36.60;18.90;;;;;;5016585;28;20396;-69
2022/02/05 11:51:21;;;;;;;13.05;4.07;;;36.60;18.90;;;;;;5015923;28;20080;-69
2022/02/05 11:53:58;;;;;;;9.13;2.90;;;36.70;18.70;;;;;;5017055;28;20033;-69
2022/02/05 11:56:51;;;;;;;12.45;2.80;;;36.70;18.30;;;;;;5030093;28;20121;-69
2022/02/05 11:59:25;;;;;;;8.75;2.70;;;36.60;18.40;;;;;;5021420;28;20030;-69
2022/02/05 12:02:20;;;;;;;11.90;3.80;;;36.60;18.10;;;;;;5019821;28;20069;-69
2022/02/05 12:04:47;;;;;;;9.93;2.90;;;36.30;18.70;;;;;;5025274;28;20496;-69
2022/02/05 12:07:14;;;;;;;12.30;3.63;;;36.20;18.50;;;;;;5029995;28;20093;-69
2022/02/05 12:09:47;;;;;;;11.20;3.20;;;35.70;19.20;;;;;;5016155;28;20439;-69
2022/02/05 12:12:35;;;;;;;11.38;3.20;;;34.90;20.00;;;;;;5015266;28;20022;-69
2022/02/05 12:15:13;;;;;;;11.35;2.88;;;34.10;20.60;;;;;;5016327;28;20054;-69
2022/02/05 12:17:56;;;;;;;13.82;3.20;;;34.80;19.70;;;;;;5031251;28;20029;-69
2022/02/05 12:20:30;;;;;;;11.25;2.80;;;33.70;20.40;;;;;;5020162;28;20536;-68
2022/02/05 12:25:33;;;;;;;13.70;4.55;;;31.60;22.60;;;;;;5026878;28;20076;-68
2022/02/05 12:28:34;;;;;;;10.60;2.75;;;29.70;23.90;;;;;;5018736;28;20032;-68
2022/02/05 12:31:18;;;;;;;11.82;2.65;;;29.10;24.30;;;;;;5018828;28;20029;-69
2022/02/05 12:34:01;;;;;;;13.00;2.17;;;30.70;22.70;;;;;;5016009;28;20033;-69
2022/02/05 12:36:50;;;;;;;12.52;3.10;;;32.10;21.30;;;;;;5014105;28;20045;-69
2022/02/05 12:39:23;;;;;;;10.32;2.33;;;32.70;20.90;;;;;;5028622;28;20024;-68
2022/02/05 12:41:52;;;;;;;10.38;2.70;;;30.20;23.60;;;;;;5016007;28;20563;-71
2022/02/05 12:44:23;;;;;;;16.65;6.55;;;28.20;25.40;;;;;;5027593;28;20087;-69
2022/02/05 12:46:55;;;;;;;10.13;2.47;;;26.90;26.60;;;;;;5024366;28;20137;-70
2022/02/05 12:49:26;;;;;;;11.50;2.30;;;25.60;27.90;;;;;;5021166;28;20037;-70
2022/02/05 12:51:53;;;;;;;13.25;2.40;;;26.60;26.50;;;;;;5030120;28;20037;-70
2022/02/05 12:54:26;;;;;;;8.65;2.13;;;29.10;24.30;;;;;;5013882;28;20018;-71
2022/02/05 12:56:54;;;;;;;15.48;6.40;;;30.80;22.60;;;;;;5031370;28;20025;-71
2022/02/05 12:59:27;;;;;;;10.30;2.05;;;32.00;21.70;;;;;;5020027;28;20065;-71
2022/02/05 13:02:00;;;;;;;9.40;2.30;;;33.30;20.90;;;;;;5022118;28;20103;-71
2022/02/05 13:04:35;;;;;;;10.07;2.17;;;33.80;19.60;;;;;;5027069;28;20033;-70
2022/02/05 13:07:08;;;;;;;8.93;1.95;;;31.70;21.50;;;;;;5018209;28;20032;-70
2022/02/05 13:09:45;;;;;;;10.38;2.38;;;30.00;22.70;;;;;;5014261;28;20025;-70
2022/02/05 13:12:12;;;;;;;12.95;3.33;;;29.50;23.70;;;;;;5030177;28;20512;-68
2022/02/05 13:14:44;;;;;;;11.95;3.08;;;31.20;22.20;;;;;;5018104;28;20081;-69
2022/02/05 13:17:23;;;;;;;10.25;2.17;;;32.50;21.00;;;;;;5027168;28;20420;-69
2022/02/05 13:39:21;;;;;;;11.57;2.85;;;30.50;22.40;;;;;;5028040;28;20056;-69
2022/02/05 13:42:06;;;;;;;8.43;1.83;;;32.10;20.80;;;;;;5026427;28;20554;-69
2022/02/05 13:47:31;;;;;;;11.82;1.85;;;33.20;20.40;;;;;;5026540;28;20048;-69
2022/02/05 13:50:09;;;;;;;10.48;2.97;;;34.00;19.90;;;;;;5026256;28;20551;-69
2022/02/05 13:52:44;;;;;;;9.35;3.08;;;34.40;19.60;;;;;;5026117;28;20037;-69
2022/02/05 13:55:25;;;;;;;11.45;3.00;;;34.70;19.70;;;;;;5026272;28;20835;-69
2022/02/05 13:57:58;;;;;;;10.20;2.70;;;34.80;19.10;;;;;;5026026;28;20030;-69
2022/02/05 14:00:42;;;;;;;14.30;5.20;;;34.50;19.40;;;;;;5026281;28;20424;-68
2022/02/05 14:03:09;;;;;;;11.15;2.28;;;34.10;19.70;;;;;;5023399;28;20107;-69
2022/02/05 14:05:45;;;;;;;14.93;5.00;;;34.40;19.70;;;;;;5025705;28;20168;-69
2022/02/05 14:08:23;;;;;;;9.20;2.30;;;34.70;19.50;;;;;;5026280;28;20516;-68
2022/02/05 14:10:56;;;;;;;10.45;2.60;;;34.80;19.00;;;;;;5025969;28;20022;-69
2022/02/05 14:13:21;;;;;;;9.77;2.50;;;34.70;19.30;;;;;;5025803;28;20048;-69
2022/02/05 14:15:53;;;;;;;8.77;2.42;;;34.70;19.30;;;;;;5027866;28;20030;-69
2022/02/05 14:18:18;;;;;;;9.25;3.00;;;34.90;18.30;;;;;;5012604;28;20061;-69
2022/02/05 14:20:58;;;;;;;8.60;2.65;;;34.90;18.10;;;;;;5029486;28;20057;-69
2022/02/05 14:23:27;;;;;;;9.45;2.00;;;35.00;18.30;;;;;;5018078;28;20065;-69
2022/02/05 14:28:36;;;;;;;12.73;5.47;;;34.60;18.40;;;;;;5017474;28;20501;-69
2022/02/05 14:31:07;;;;;;;8.32;2.40;;;34.50;18.60;;;;;;5016644;28;20112;-69
2022/02/05 14:41:43;;;;;;;11.80;4.15;;;33.60;18.80;;;;;;5025474;28;20032;-68
2022/02/05 14:44:11;;;;;;;10.50;2.80;;;33.20;19.30;;;;;;5028325;28;20053;-68
2022/02/05 14:46:36;;;;;;;13.32;4.25;;;32.90;20.00;;;;;;5023517;28;20045;-68
2022/02/05 14:49:02;;;;;;;9.15;2.38;;;32.80;19.80;;;;;;5016388;28;20026;-68
2022/02/05 14:51:28;;;;;;;7.82;2.20;;;32.90;19.90;;;;;;5012484;28;20460;-68
2022/02/05 14:53:58;;;;;;;15.30;5.38;;;32.10;20.20;;;;;;5014748;28;20026;-69
2022/02/05 14:56:25;;;;;;;22.40;11.82;;;32.10;20.70;;;;;;5025097;28;20055;-68
2022/02/05 14:58:50;;;;;;;8.90;2.67;;;32.20;20.60;;;;;;5028311;28;20061;-69
2022/02/05 15:01:21;;;;;;;9.00;2.00;;;32.30;20.60;;;;;;5028098;28;20071;-68
2022/02/05 15:03:47;;;;;;;;;;;32.20;20.40;;;;;;5028109;28;20017;-68
2022/02/05 15:06:18;;;;;;;10.10;3.00;;;30.10;21.60;;;;;;5027920;28;19920;-68
2022/02/05 15:08:46;;;;;;;13.40;4.97;;;27.70;24.00;;;;;;5027291;28;20033;-69
2022/02/05 15:11:15;;;;;;;18.20;10.23;;;25.90;25.80;;;;;;5019050;28;20053;-69
2022/02/05 15:13:41;;;;;;;15.27;5.88;;;26.10;25.90;;;;;;5017120;28;20053;-69
2022/02/05 15:16:10;;;;;;;18.90;7.93;;;26.50;25.70;;;;;;5016841;28;20041;-69
2022/02/05 15:18:41;;;;;;;12.57;3.80;;;27.40;25.10;;;;;;5012702;28;20063;-69
2022/02/05 15:21:07;;;;;;;11.60;4.25;;;26.10;25.90;;;;;;5027468;28;20030;-69
2022/02/05 15:23:33;;;;;;;9.98;3.95;;;24.50;27.50;;;;;;5017032;28;20481;-68
2022/02/05 15:26:03;;;;;;;11.30;3.60;;;23.30;28.60;;;;;;5016612;28;20042;-69
2022/02/05 15:28:29;;;;;;;9.55;2.22;;;23.00;29.00;;;;;;5016709;28;20374;-69
2022/02/05 15:30:55;;;;;;;7.80;2.88;;;22.30;30.10;;;;;;5015622;28;20034;-69
2022/02/05 15:33:21;;;;;;;9.38;2.88;;;22.50;30.00;;;;;;5027516;28;20028;-69
2022/02/05 15:35:53;;;;;;;11.80;3.90;;;24.10;28.60;;;;;;5028875;28;20033;-69
2022/02/05 15:38:28;;;;;;;10.05;2.40;;;24.60;27.70;;;;;;5018101;28;20038;-69
2022/02/05 15:43:46;;;;;;;10.00;2.65;;;23.30;28.80;;;;;;5016342;28;20464;-69
2022/02/05 15:46:13;;;;;;;8.35;2.38;;;23.90;28.60;;;;;;5016540;28;20041;-69
2022/02/05 15:48:39;;;;;;;7.75;2.97;;;24.60;27.70;;;;;;5012622;28;20041;-69
2022/02/05 15:51:06;;;;;;;10.95;3.20;;;24.90;27.60;;;;;;5012466;28;20400;-69
2022/02/05 15:53:36;;;;;;;26.90;16.33;;;24.70;27.70;;;;;;5016325;28;20041;-68
2022/02/05 15:56:04;;;;;;;;;;;23.50;29.00;;;;;;5016758;28;20026;-68
2022/02/05 15:58:46;;;;;;;9.52;1.75;;;22.20;30.70;;;;;;5024400;28;19909;-68
2022/02/05 16:01:12;;;;;;;12.60;4.65;;;21.30;32.30;;;;;;5027361;28;20689;-68
2022/02/05 16:03:38;;;;;;;12.20;4.32;;;20.50;33.50;;;;;;5026712;28;20116;-68
2022/02/05 16:06:04;;;;;;;14.63;6.22;;;19.90;34.50;;;;;;5028291;28;20053;-68